createdAt,value
2022-09-27T00:02:26.201Z,100270.63
2022-09-27T00:04:55.873Z,100296.88
2022-09-27T00:07:25.573Z,100290.84
2022-09-27T00:09:53.954Z,100284.69
2022-09-27T00:12:22.253Z,100276.00
2022-09-27T00:14:50.625Z,100272.75
2022-09-27T00:17:19.933Z,100255.66
2022-09-27T00:19:48.353Z,100273.25
2022-09-27T00:22:16.662Z,100268.31
2022-09-27T00:24:46.325Z,100264.66
2022-09-27T00:27:14.642Z,100261.00
2022-09-27T00:29:43.153Z,100267.44
2022-09-27T00:32:11.546Z,100270.41
2022-09-27T00:34:40.618Z,100261.47
2022-09-27T00:37:09.134Z,100259.22
2022-09-27T00:39:38.353Z,100251.78
2022-09-27T00:42:11.374Z,100254.72
2022-09-27T00:45:08.661Z,100257.69
2022-09-27T00:47:44.449Z,100250.19
2022-09-27T00:50:23.218Z,100242.94
2022-09-27T00:53:00.770Z,100237.34
2022-09-27T00:55:34.022Z,100223.22
2022-09-27T00:58:05.693Z,100212.03
2022-09-27T01:00:34.462Z,100208.28
2022-09-27T01:03:07.188Z,100184.97
2022-09-27T01:05:35.981Z,100201.69
2022-09-27T01:08:04.329Z,100205.00
2022-09-27T01:10:42.167Z,100171.72
2022-09-27T01:13:21.058Z,100188.91
2022-09-27T01:15:59.116Z,100140.28
2022-09-27T01:18:35.861Z,100185.94
2022-09-27T01:21:27.418Z,100175.13
2022-09-27T01:24:28.868Z,100174.63
2022-09-27T01:27:35.055Z,100187.53
2022-09-27T01:30:19.721Z,100200.59
2022-09-27T01:32:59.667Z,100209.53
2022-09-27T01:35:35.746Z,100221.56
2022-09-27T01:38:13.592Z,100219.47
2022-09-27T01:40:50.585Z,100212.41
2022-09-27T01:43:46.870Z,100209.72
2022-09-27T01:46:23.374Z,100170.34
2022-09-27T01:49:13.666Z,100212.84
2022-09-27T01:51:47.098Z,100205.16
2022-09-27T01:54:20.607Z,100194.38
2022-09-27T01:56:55.256Z,100194.59
2022-09-27T01:59:33.573Z,100150.41
2022-09-27T02:02:19.953Z,100190.03
2022-09-27T02:05:21.086Z,100186.69
2022-09-27T02:07:59.291Z,100193.75
2022-09-27T02:10:32.677Z,100177.97
2022-09-27T02:13:07.800Z,100179.00
2022-09-27T02:15:49.626Z,100177.13
2022-09-27T02:18:37.559Z,100182.13
2022-09-27T02:21:09.014Z,100118.78
2022-09-27T02:23:42.866Z,100177.13
2022-09-27T02:26:19.246Z,100176.28
2022-09-27T02:28:53.061Z,100165.88
2022-09-27T02:31:28.889Z,100163.38
2022-09-27T02:34:04.068Z,100165.06
2022-09-27T02:36:33.221Z,100162.16
2022-09-27T02:39:01.888Z,100140.19
2022-09-27T02:41:32.337Z,100147.06
2022-09-27T02:44:05.644Z,100151.81
2022-09-27T02:46:54.897Z,100143.06
2022-09-27T02:49:43.522Z,100140.78
2022-09-27T02:52:40.657Z,100140.91
2022-09-27T02:55:17.588Z,100144.66
2022-09-27T02:58:12.196Z,100150.25
2022-09-27T03:01:08.121Z,100144.41
2022-09-27T03:03:53.495Z,100150.63
2022-09-27T03:06:25.203Z,100148.56
2022-09-27T03:08:54.007Z,100153.97
2022-09-27T03:11:22.434Z,100148.56
2022-09-27T03:14:08.028Z,100143.75
2022-09-27T03:16:40.374Z,100147.06
2022-09-27T03:19:44.180Z,100142.91
2022-09-27T03:22:28.868Z,100139.56
2022-09-27T03:24:57.640Z,100139.19
2022-09-27T03:27:26.074Z,100141.88
2022-09-27T03:29:54.473Z,100147.28
2022-09-27T03:32:23.018Z,100140.34
2022-09-27T03:35:11.522Z,100138.03
2022-09-27T03:37:42.106Z,100138.28
2022-09-27T03:40:11.757Z,100117.00
2022-09-27T03:42:40.415Z,100137.47
2022-09-27T03:45:09.779Z,100148.03
2022-09-27T03:47:41.920Z,100144.53
2022-09-27T03:50:12.873Z,100139.75
2022-09-27T03:52:44.126Z,100150.34
2022-09-27T03:55:13.465Z,100160.50
2022-09-27T03:57:46.712Z,100165.69
2022-09-27T04:00:17.318Z,100165.69
2022-09-27T04:02:46.205Z,100169.88
2022-09-27T04:05:27.339Z,100171.53
2022-09-27T04:08:01.540Z,100170.25
2022-09-27T04:10:32.545Z,100173.97
2022-09-27T04:13:00.984Z,100172.31
2022-09-27T04:15:33.631Z,100170.66
2022-09-27T04:18:22.161Z,100177.91
2022-09-27T04:20:50.482Z,100176.63
2022-09-27T04:23:21.512Z,100177.25
2022-09-27T04:25:53.424Z,100181.44
2022-09-27T04:28:42.076Z,100182.59
2022-09-27T04:31:10.525Z,100179.31
2022-09-27T04:34:10.915Z,100181.13
2022-09-27T04:36:38.251Z,100173.03
2022-09-27T04:39:12.494Z,100175.97
2022-09-27T04:41:45.764Z,100185.28
2022-09-27T04:44:15.653Z,100124.03
2022-09-27T04:46:48.988Z,100182.97
2022-09-27T04:49:18.017Z,100180.91
2022-09-27T04:51:47.214Z,100174.66
2022-09-27T04:54:17.462Z,100170.72
2022-09-27T04:56:57.388Z,100167.19
2022-09-27T04:59:26.209Z,100165.53
2022-09-27T05:01:55.047Z,100160.34
2022-09-27T05:04:48.748Z,100165.28
2022-09-27T05:07:20.504Z,100162.59
2022-09-27T05:09:56.985Z,100114.34
2022-09-27T05:12:26.953Z,100163.81
2022-09-27T05:14:59.614Z,100170.81
2022-09-27T05:17:34.316Z,100171.66
2022-09-27T05:20:21.818Z,100146.19
2022-09-27T05:22:56.164Z,100189.69
2022-09-27T05:25:27.125Z,100200.47
2022-09-27T05:27:55.609Z,100191.72
2022-09-27T05:30:24.038Z,100190.63
2022-09-27T05:32:56.282Z,100199.81
2022-09-27T05:35:45.802Z,100213.94
2022-09-27T05:38:14.861Z,100221.00
2022-09-27T05:40:50.452Z,100215.03
2022-09-27T05:43:20.152Z,100222.28
2022-09-27T05:45:48.829Z,100222.28
2022-09-27T05:48:20.289Z,100227.69
2022-09-27T05:50:56.747Z,100230.00
2022-09-27T05:53:25.070Z,100228.97
2022-09-27T05:55:55.319Z,100232.31
2022-09-27T05:58:32.708Z,100235.84
2022-09-27T06:01:14.319Z,100236.03
2022-09-27T06:04:11.642Z,100233.56
2022-09-27T06:07:06.400Z,100230.69
2022-09-27T06:09:35.017Z,100237.53
2022-09-27T06:12:11.365Z,100236.13
2022-09-27T06:14:41.275Z,100236.59
2022-09-27T06:17:30.345Z,100232.41
2022-09-27T06:20:01.151Z,100231.00
2022-09-27T06:22:29.753Z,100224.00
2022-09-27T06:25:04.085Z,100225.09
2022-09-27T06:27:38.086Z,100224.28
2022-09-27T06:30:11.716Z,100231.81
2022-09-27T06:32:57.589Z,100233.28
2022-09-27T06:35:41.281Z,100234.56
2022-09-27T06:38:13.191Z,100216.19
2022-09-27T06:40:49.507Z,100243.16
2022-09-27T06:43:34.198Z,100247.34
2022-09-27T06:46:15.052Z,100244.28
2022-09-27T06:49:06.406Z,100253.41
2022-09-27T06:51:39.468Z,100255.69
2022-09-27T06:54:15.915Z,100217.16
2022-09-27T06:56:56.178Z,100255.69
2022-09-27T06:59:49.524Z,100265.75
2022-09-27T07:02:36.670Z,100263.09
2022-09-27T07:05:32.418Z,100257.97
2022-09-27T07:08:11.997Z,100250.59
2022-09-27T07:10:41.593Z,100253.59
2022-09-27T07:13:12.279Z,100253.44
2022-09-27T07:15:43.490Z,100278.41
2022-09-27T07:18:15.878Z,100232.22
2022-09-27T07:20:44.216Z,100261.91
2022-09-27T07:23:13.184Z,100270.50
2022-09-27T07:25:41.573Z,100274.84
2022-09-27T07:28:18.463Z,100288.63
2022-09-27T07:30:56.842Z,100286.78
2022-09-27T07:33:25.615Z,100295.72
2022-09-27T07:35:54.034Z,100284.50
2022-09-27T07:38:22.495Z,100287.22
2022-09-27T07:40:51.715Z,100294.25
2022-09-27T07:43:20.811Z,100284.69
2022-09-27T07:45:51.132Z,100297.81
2022-09-27T07:48:54.942Z,100301.78
2022-09-27T07:51:41.737Z,100313.69
2022-09-27T07:54:28.223Z,100313.06
2022-09-27T07:57:08.705Z,100316.59
2022-09-27T07:59:47.078Z,100310.50
2022-09-27T08:02:19.696Z,100310.53
2022-09-27T08:04:49.602Z,100309.47
2022-09-27T08:07:18.652Z,100294.66
2022-09-27T08:09:50.908Z,100306.53
2022-09-27T08:12:21.601Z,100306.34
2022-09-27T08:14:51.346Z,100318.88
2022-09-27T08:17:21.092Z,100310.97
2022-09-27T08:20:10.417Z,100328.47
2022-09-27T08:23:07.224Z,100329.31
2022-09-27T08:25:43.596Z,100329.69
2022-09-27T08:28:28.438Z,100336.13
2022-09-27T08:31:02.664Z,100334.69
2022-09-27T08:33:34.912Z,100330.47
2022-09-27T08:36:05.607Z,100334.59
2022-09-27T08:38:33.924Z,100329.72
2022-09-27T08:41:09.477Z,100336.31
2022-09-27T08:43:47.549Z,100328.97
2022-09-27T08:46:27.120Z,100339.72
2022-09-27T08:49:07.092Z,100329.81
2022-09-27T08:51:37.636Z,100333.75
2022-09-27T08:54:09.406Z,100340.31
2022-09-27T08:56:38.906Z,100346.34
2022-09-27T08:59:14.826Z,100343.25
2022-09-27T09:01:44.314Z,100360.41
2022-09-27T09:04:29.831Z,100348.19
2022-09-27T09:07:09.790Z,100346.81
2022-09-27T09:09:45.394Z,100331.19
2022-09-27T09:12:48.192Z,100335.78
2022-09-27T09:15:55.404Z,100333.25
2022-09-27T09:18:40.389Z,100320.34
2022-09-27T09:21:27.806Z,100328.28
2022-09-27T09:24:19.008Z,100327.25
2022-09-27T09:26:55.245Z,100323.28
2022-09-27T09:29:37.794Z,100326.19
2022-09-27T09:32:21.332Z,100339.06
2022-09-27T09:34:55.945Z,100328.22
2022-09-27T09:37:36.627Z,100328.44
2022-09-27T09:40:17.643Z,100330.94
2022-09-27T09:42:52.221Z,100321.59
2022-09-27T09:45:26.331Z,100317.63
2022-09-27T09:48:01.997Z,100329.25
2022-09-27T09:50:35.349Z,100325.69
2022-09-27T09:53:15.260Z,100321.50
2022-09-27T09:55:49.710Z,100319.41
2022-09-27T09:58:25.258Z,100319.56
2022-09-27T10:01:02.587Z,100312.19
2022-09-27T10:03:31.034Z,100312.16
2022-09-27T10:05:59.321Z,100313.63
2022-09-27T10:08:29.154Z,100312.94
2022-09-27T10:11:23.417Z,100307.50
2022-09-27T10:13:59.553Z,100323.94
2022-09-27T10:16:29.285Z,100310.94
2022-09-27T10:19:04.099Z,100314.63
2022-09-27T10:21:35.080Z,100314.75
2022-09-27T10:24:17.308Z,100323.53
2022-09-27T10:27:09.371Z,100326.53
2022-09-27T10:29:40.283Z,100330.22
2022-09-27T10:32:25.490Z,100321.53
2022-09-27T10:35:32.837Z,100330.56
2022-09-27T10:38:22.755Z,100326.84
2022-09-27T10:40:56.148Z,100322.84
2022-09-27T10:43:30.673Z,100331.91
2022-09-27T10:46:17.514Z,100346.19
2022-09-27T10:48:49.280Z,100338.72
2022-09-27T10:51:26.372Z,100334.38
2022-09-27T10:53:58.799Z,100337.22
2022-09-27T10:56:34.989Z,100329.88
2022-09-27T10:59:05.555Z,100329.34
2022-09-27T11:01:45.603Z,100343.16
2022-09-27T11:04:40.290Z,100337.84
2022-09-27T11:07:20.210Z,100339.09
2022-09-27T11:10:03.461Z,100334.31
2022-09-27T11:12:36.847Z,100339.13
2022-09-27T11:15:08.421Z,100340.56
2022-09-27T11:17:51.197Z,100342.88
2022-09-27T11:20:35.910Z,100336.31
2022-09-27T11:23:34.008Z,100336.50
2022-09-27T11:26:31.033Z,100330.56
2022-09-27T11:29:24.238Z,100340.59
2022-09-27T11:32:35.845Z,100344.97
2022-09-27T11:35:15.950Z,100347.66
2022-09-27T11:37:53.332Z,100351.19
2022-09-27T11:40:32.908Z,100357.44
2022-09-27T11:43:35.372Z,100357.97
2022-09-27T11:46:24.611Z,100360.84
2022-09-27T11:49:29.608Z,100347.66
2022-09-27T11:52:30.758Z,100333.75
2022-09-27T11:55:21.684Z,100355.25
2022-09-27T11:58:01.076Z,100350.00
2022-09-27T12:00:43.629Z,100348.50
2022-09-27T12:03:53.537Z,100338.78
2022-09-27T12:06:35.088Z,100314.63
2022-09-27T12:09:08.582Z,100337.94
2022-09-27T12:11:42.715Z,100284.66
2022-09-27T12:14:24.603Z,100314.91
2022-09-27T12:16:57.270Z,100316.34
2022-09-27T12:19:31.743Z,100309.78
2022-09-27T12:22:11.313Z,100299.97
2022-09-27T12:24:43.610Z,100288.66
2022-09-27T12:27:38.624Z,100302.78
2022-09-27T12:30:13.634Z,100301.63
2022-09-27T12:32:52.047Z,100308.28
2022-09-27T12:35:26.826Z,100313.09
2022-09-27T12:38:00.566Z,100303.72
2022-09-27T12:40:34.376Z,100303.88
2022-09-27T12:43:10.118Z,100310.75
2022-09-27T12:46:16.346Z,100312.28
2022-09-27T12:48:54.858Z,100322.81
2022-09-27T12:51:25.813Z,100327.88
2022-09-27T12:54:25.350Z,100323.84
2022-09-27T12:57:03.651Z,100330.63
2022-09-27T12:59:48.215Z,100331.97
2022-09-27T13:03:11.083Z,100317.34
2022-09-27T13:06:29.044Z,100312.44
2022-09-27T13:09:20.921Z,100311.81
2022-09-27T13:12:02.399Z,100307.34
2022-09-27T13:14:36.202Z,100319.16
2022-09-27T13:17:05.517Z,100317.78
2022-09-27T13:19:45.703Z,100322.19
2022-09-27T13:22:38.117Z,100323.38
2022-09-27T13:25:55.475Z,100324.91
2022-09-27T13:29:02.309Z,100319.59
2022-09-27T13:32:15.267Z,100313.47
2022-09-27T13:35:13.819Z,100319.16
2022-09-27T13:37:53.226Z,100323.06
2022-09-27T13:40:31.949Z,100319.53
2022-09-27T13:43:42.768Z,100322.16
2022-09-27T13:46:27.980Z,100320.75
2022-09-27T13:49:03.776Z,100317.50
2022-09-27T13:52:03.265Z,100313.63
2022-09-27T13:54:41.968Z,100323.78
2022-09-27T13:57:45.277Z,100317.25
2022-09-27T14:00:22.991Z,100320.16
2022-09-27T14:03:02.738Z,100330.06
2022-09-27T14:05:37.798Z,100322.28
2022-09-27T14:08:08.537Z,100322.19
2022-09-27T14:10:37.678Z,100320.06
2022-09-27T14:13:08.014Z,100323.25
2022-09-27T14:15:50.336Z,100319.47
2022-09-27T14:18:20.008Z,100322.66
2022-09-27T14:20:52.261Z,100295.94
2022-09-27T14:23:52.237Z,100322.47
2022-09-27T14:26:25.139Z,100327.22
2022-09-27T14:28:54.267Z,100326.78
2022-09-27T14:31:29.921Z,100328.06
2022-09-27T14:34:21.039Z,100329.88
2022-09-27T14:37:07.785Z,100331.78
2022-09-27T14:39:55.773Z,100339.38
2022-09-27T14:42:36.606Z,100341.75
2022-09-27T14:45:15.875Z,100349.38
2022-09-27T14:47:49.295Z,100344.47
2022-09-27T14:50:24.508Z,100343.19
2022-09-27T14:52:55.857Z,100348.47
2022-09-27T14:55:27.716Z,100348.53
2022-09-27T14:57:58.126Z,100357.72
2022-09-27T15:00:31.169Z,100359.84
2022-09-27T15:03:04.192Z,100370.41
2022-09-27T15:05:34.542Z,100367.53
2022-09-27T15:08:05.977Z,100372.75
2022-09-27T15:10:36.604Z,100373.19
2022-09-27T15:13:07.033Z,100368.59
2022-09-27T15:15:38.322Z,100372.56
2022-09-27T15:18:40.906Z,100375.75
2022-09-27T15:21:10.725Z,100372.28
2022-09-27T15:23:41.192Z,100370.63
2022-09-27T15:26:14.224Z,100367.34
2022-09-27T15:28:48.948Z,100378.06
2022-09-27T15:31:18.307Z,100367.28
2022-09-27T15:33:56.307Z,100367.31
2022-09-27T15:36:51.926Z,100363.00
2022-09-27T15:39:22.284Z,100378.13
2022-09-27T15:42:08.977Z,100381.06
2022-09-27T15:44:40.583Z,100371.75
2022-09-27T15:47:41.528Z,100388.72
2022-09-27T15:50:41.212Z,100395.25
2022-09-27T15:53:10.621Z,100399.03
2022-09-27T15:55:43.491Z,100389.69
2022-09-27T15:58:16.997Z,100405.50
2022-09-27T16:00:55.162Z,100410.53
2022-09-27T16:03:23.837Z,100413.06
2022-09-27T16:05:56.280Z,100404.72
2022-09-27T16:08:24.621Z,100399.91
2022-09-27T16:10:55.145Z,100400.13
2022-09-27T16:13:23.472Z,100402.63
2022-09-27T16:15:51.964Z,100405.34
2022-09-27T16:18:20.219Z,100408.06
2022-09-27T16:20:48.497Z,100415.34
2022-09-27T16:23:18.423Z,100417.22
2022-09-27T16:25:46.649Z,100410.53
2022-09-27T16:28:14.853Z,100417.66
2022-09-27T16:30:43.076Z,100420.34
2022-09-27T16:33:11.481Z,100418.88
2022-09-27T16:35:42.063Z,100418.25
2022-09-27T16:38:11.280Z,100422.44
2022-09-27T16:40:40.987Z,100420.16
2022-09-27T16:43:09.259Z,100420.78
2022-09-27T16:45:37.609Z,100428.47
2022-09-27T16:48:05.956Z,100430.75
2022-09-27T16:50:51.298Z,100431.81
2022-09-27T16:53:19.572Z,100429.91
2022-09-27T16:55:50.212Z,100415.31
2022-09-27T16:58:18.429Z,100417.59
2022-09-27T17:00:46.609Z,100424.06
2022-09-27T17:03:14.931Z,100428.25
2022-09-27T17:05:43.165Z,100417.59
2022-09-27T17:08:11.476Z,100419.69
2022-09-27T17:10:41.360Z,100434.88
2022-09-27T17:13:11.035Z,100422.78
2022-09-27T17:15:39.630Z,100430.31
2022-09-27T17:18:07.914Z,100428.66
2022-09-27T17:20:36.078Z,100427.84
2022-09-27T17:23:04.628Z,100428.88
2022-09-27T17:25:33.153Z,100422.19
2022-09-27T17:28:01.437Z,100426.56
2022-09-27T17:30:32.049Z,100433.47
2022-09-27T17:33:00.332Z,100424.50
2022-09-27T17:35:28.513Z,100430.53
2022-09-27T17:37:56.746Z,100439.69
2022-09-27T17:40:25.032Z,100423.44
2022-09-27T17:42:53.459Z,100433.00
2022-09-27T17:45:21.725Z,100410.88
2022-09-27T17:48:12.897Z,100440.31
2022-09-27T17:50:41.785Z,100432.16
2022-09-27T17:53:09.968Z,100436.06
2022-09-27T17:55:38.200Z,100431.06
2022-09-27T17:58:06.499Z,100425.00
2022-09-27T18:00:34.973Z,100442.09
2022-09-27T18:03:04.606Z,100441.06
2022-09-27T18:05:33.099Z,100409.16
2022-09-27T18:08:01.683Z,100439.97
2022-09-27T18:10:29.941Z,100443.06
2022-09-27T18:12:58.815Z,100396.97
2022-09-27T18:15:27.374Z,100445.56
2022-09-27T18:17:58.305Z,100465.72
2022-09-27T18:20:28.154Z,100448.69
2022-09-27T18:22:57.308Z,100446.97
2022-09-27T18:25:25.643Z,100449.44
2022-09-27T18:27:55.972Z,100451.91
2022-09-27T18:30:24.437Z,100458.75
2022-09-27T18:32:53.839Z,100460.81
2022-09-27T18:35:24.274Z,100457.50
2022-09-27T18:37:54.516Z,100462.88
2022-09-27T18:40:44.546Z,100457.22
2022-09-27T18:43:11.044Z,100415.84
2022-09-27T18:45:39.909Z,100455.56
2022-09-27T18:48:08.236Z,100459.66
2022-09-27T18:50:37.682Z,100457.34
2022-09-27T18:53:08.378Z,100466.13
2022-09-27T18:55:38.526Z,100460.09
2022-09-27T18:58:07.058Z,100459.66
2022-09-27T19:00:35.437Z,100465.88
2022-09-27T19:03:04.169Z,100473.56
2022-09-27T19:05:32.510Z,100412.59
2022-09-27T19:08:00.690Z,100456.84
2022-09-27T19:10:30.444Z,100452.84
2022-09-27T19:12:58.651Z,100446.94
2022-09-27T19:15:26.920Z,100451.69
2022-09-27T19:17:55.488Z,100454.16
2022-09-27T19:20:23.659Z,100457.63
2022-09-27T19:22:51.810Z,100449.91
2022-09-27T19:25:20.186Z,100452.78
2022-09-27T19:27:49.870Z,100445.91
2022-09-27T19:30:18.751Z,100449.19
2022-09-27T19:32:47.461Z,100440.50
2022-09-27T19:35:16.052Z,100441.53
2022-09-27T19:37:44.352Z,100439.28
2022-09-27T19:40:12.558Z,100440.78
2022-09-27T19:42:40.786Z,100438.91
2022-09-27T19:45:12.410Z,100432.66
2022-09-27T19:47:40.640Z,100433.69
2022-09-27T19:50:09.774Z,100439.53
2022-09-27T19:52:38.820Z,100445.78
2022-09-27T19:55:08.156Z,100447.84
2022-09-27T19:57:36.441Z,100450.53
2022-09-27T20:00:06.556Z,100463.03
2022-09-27T20:02:36.329Z,100467.19
2022-09-27T20:05:04.927Z,100462.00
2022-09-27T20:07:35.081Z,100463.47
2022-09-27T20:10:03.397Z,100471.38
2022-09-27T20:12:31.721Z,100464.94
2022-09-27T20:14:59.957Z,100469.13
2022-09-27T20:17:32.073Z,100471.63
2022-09-27T20:20:01.925Z,100466.88
2022-09-27T20:22:30.203Z,100469.13
2022-09-27T20:24:58.664Z,100469.13
2022-09-27T20:27:26.836Z,100468.94
2022-09-27T20:29:55.169Z,100471.00
2022-09-27T20:32:27.732Z,100474.72
2022-09-27T20:34:56.586Z,100479.03
2022-09-27T20:37:26.647Z,100476.16
2022-09-27T20:39:54.902Z,100464.31
2022-09-27T20:42:23.306Z,100458.53
2022-09-27T20:44:54.300Z,100438.91
2022-09-27T20:47:23.127Z,100460.56
2022-09-27T20:49:51.481Z,100454.78
2022-09-27T20:52:20.841Z,100448.34
2022-09-27T20:54:50.413Z,100443.34
2022-09-27T20:57:27.833Z,100443.16
2022-09-27T21:00:10.153Z,100438.56
2022-09-27T21:02:38.461Z,100436.50
2022-09-27T21:05:07.426Z,100442.13
2022-09-27T21:07:35.588Z,100439.03
2022-09-27T21:10:06.029Z,100439.03
2022-09-27T21:12:34.250Z,100439.69
2022-09-27T21:15:02.513Z,100435.69
2022-09-27T21:17:30.786Z,100432.81
2022-09-27T21:19:58.947Z,100440.72
2022-09-27T21:22:27.266Z,100436.16
2022-09-27T21:24:56.485Z,100432.59
2022-09-27T21:27:26.246Z,100432.41
2022-09-27T21:29:54.452Z,100423.44
2022-09-27T21:32:22.686Z,100429.97
2022-09-27T21:34:51.011Z,100416.19
2022-09-27T21:37:19.271Z,100430.78
2022-09-27T21:39:47.418Z,100418.13
2022-09-27T21:42:15.789Z,100411.69
2022-09-27T21:44:45.630Z,100407.13
2022-09-27T21:47:14.710Z,100392.00
2022-09-27T21:49:42.850Z,100405.00
2022-09-27T21:52:11.149Z,100407.69
2022-09-27T21:54:39.383Z,100408.72
2022-09-27T21:57:07.688Z,100402.69
2022-09-27T21:59:35.840Z,100411.00
2022-09-27T22:02:05.624Z,100412.66
2022-09-27T22:04:33.843Z,100383.25
2022-09-27T22:07:02.065Z,100277.03
2022-09-27T22:09:30.306Z,100402.03
2022-09-27T22:11:58.616Z,100393.28
2022-09-27T22:14:26.933Z,100388.28
2022-09-27T22:16:55.249Z,100391.81
2022-09-27T22:19:24.875Z,100391.63
2022-09-27T22:21:54.092Z,100372.84
2022-09-27T22:24:22.417Z,100391.63
2022-09-27T22:26:53.898Z,100341.53
2022-09-27T22:29:22.397Z,100385.75
2022-09-27T22:31:50.654Z,100384.09
2022-09-27T22:34:29.032Z,100376.63
2022-09-27T22:37:00.904Z,100344.69
2022-09-27T22:39:29.466Z,100368.28
2022-09-27T22:41:57.749Z,100370.16
2022-09-27T22:44:26.014Z,100371.19
2022-09-27T22:46:54.424Z,100374.72
2022-09-27T22:49:22.941Z,100383.00
2022-09-27T22:51:51.464Z,100376.78
2022-09-27T22:54:21.276Z,100369.69
2022-09-27T22:56:57.304Z,100363.28
2022-09-27T22:59:26.331Z,100357.22
2022-09-27T23:01:54.859Z,100359.09
2022-09-27T23:04:23.111Z,100362.00
2022-09-27T23:06:51.858Z,100363.84
2022-09-27T23:09:22.081Z,100355.13
2022-09-27T23:11:50.442Z,100351.56
2022-09-27T23:14:21.087Z,100348.66
2022-09-27T23:16:49.517Z,100348.22
2022-09-27T23:19:20.124Z,100344.88
2022-09-27T23:21:48.546Z,100337.94
2022-09-27T23:24:17.155Z,100348.41
2022-09-27T23:27:06.793Z,100345.31
2022-09-27T23:29:35.044Z,100346.53
2022-09-27T23:32:04.333Z,100337.59
2022-09-27T23:34:32.887Z,100329.31
2022-09-27T23:37:01.116Z,100310.50
2022-09-27T23:39:29.827Z,100327.41
2022-09-27T23:41:59.482Z,100321.59
2022-09-27T23:44:27.865Z,100318.50
2022-09-27T23:47:00.399Z,100314.16
2022-09-27T23:49:29.318Z,100299.44
2022-09-27T23:51:57.565Z,100302.13
2022-09-27T23:54:25.879Z,100304.63
2022-09-27T23:56:54.187Z,100302.97
2022-09-27T23:59:24.881Z,100294.03
